sensor_id;sensor_type;location;lat;lon;timestamp;temperature;humidity
78619;DHT22;67941;52.506;5.470;2023-04-03T00:01:39;3.80;77.60
78619;DHT22;67941;52.506;5.470;2023-04-03T00:04:08;3.80;77.60
78619;DHT22;67941;52.506;5.470;2023-04-03T00:06:37;3.80;77.60
78619;DHT22;67941;52.506;5.470;2023-04-03T00:09:09;3.80;77.60
78619;DHT22;67941;52.506;5.470;2023-04-03T00:11:38;3.80;77.60
78619;DHT22;67941;52.506;5.470;2023-04-03T00:14:07;3.70;77.70
78619;DHT22;67941;52.506;5.470;2023-04-03T00:16:36;3.70;77.70
78619;DHT22;67941;52.506;5.470;2023-04-03T00:19:05;3.70;77.70
78619;DHT22;67941;52.506;5.470;2023-04-03T00:21:36;3.60;77.80
78619;DHT22;67941;52.506;5.470;2023-04-03T00:24:06;3.60;77.80
78619;DHT22;67941;52.506;5.470;2023-04-03T00:26:38;3.60;77.80
78619;DHT22;67941;52.506;5.470;2023-04-03T00:29:08;3.60;77.80
78619;DHT22;67941;52.506;5.470;2023-04-03T00:31:37;3.60;77.80
78619;DHT22;67941;52.506;5.470;2023-04-03T00:34:08;3.60;77.80
78619;DHT22;67941;52.506;5.470;2023-04-03T00:36:37;3.60;77.80
78619;DHT22;67941;52.506;5.470;2023-04-03T00:39:07;3.50;77.80
78619;DHT22;67941;52.506;5.470;2023-04-03T00:41:38;3.50;77.90
78619;DHT22;67941;52.506;5.470;2023-04-03T00:44:21;3.50;77.90
78619;DHT22;67941;52.506;5.470;2023-04-03T00:46:50;3.50;77.70
78619;DHT22;67941;52.506;5.470;2023-04-03T00:49:19;3.50;77.80
78619;DHT22;67941;52.506;5.470;2023-04-03T00:51:48;3.50;77.80
78619;DHT22;67941;52.506;5.470;2023-04-03T00:54:17;3.50;77.80
78619;DHT22;67941;52.506;5.470;2023-04-03T00:56:50;3.50;77.70
78619;DHT22;67941;52.506;5.470;2023-04-03T00:59:23;3.50;77.80
78619;DHT22;67941;52.506;5.470;2023-04-03T01:01:53;3.40;77.80
78619;DHT22;67941;52.506;5.470;2023-04-03T01:04:28;3.30;77.90
78619;DHT22;67941;52.506;5.470;2023-04-03T01:07:00;3.30;77.90
78619;DHT22;67941;52.506;5.470;2023-04-03T01:09:30;3.30;77.90
78619;DHT22;67941;52.506;5.470;2023-04-03T01:12:17;3.30;77.80
78619;DHT22;67941;52.506;5.470;2023-04-03T01:14:50;3.20;77.80
78619;DHT22;67941;52.506;5.470;2023-04-03T01:17:29;3.20;77.90
78619;DHT22;67941;52.506;5.470;2023-04-03T01:20:16;3.10;78.00
78619;DHT22;67941;52.506;5.470;2023-04-03T01:22:57;3.10;78.00
78619;DHT22;67941;52.506;5.470;2023-04-03T01:25:28;3.10;78.00
78619;DHT22;67941;52.506;5.470;2023-04-03T01:28:00;3.00;78.10
78619;DHT22;67941;52.506;5.470;2023-04-03T01:30:31;3.00;78.00
78619;DHT22;67941;52.506;5.470;2023-04-03T01:33:03;3.00;78.10
78619;DHT22;67941;52.506;5.470;2023-04-03T01:35:33;2.90;78.20
78619;DHT22;67941;52.506;5.470;2023-04-03T01:38:02;2.90;78.20
78619;DHT22;67941;52.506;5.470;2023-04-03T01:40:31;2.90;78.10
78619;DHT22;67941;52.506;5.470;2023-04-03T01:43:00;2.90;78.10
78619;DHT22;67941;52.506;5.470;2023-04-03T01:45:29;2.80;78.20
78619;DHT22;67941;52.506;5.470;2023-04-03T01:47:58;2.80;78.20
78619;DHT22;67941;52.506;5.470;2023-04-03T01:50:29;2.80;78.20
78619;DHT22;67941;52.506;5.470;2023-04-03T01:52:58;2.70;78.20
78619;DHT22;67941;52.506;5.470;2023-04-03T01:55:27;2.70;78.20
78619;DHT22;67941;52.506;5.470;2023-04-03T01:57:56;2.70;78.20
78619;DHT22;67941;52.506;5.470;2023-04-03T02:00:25;2.70;78.20
78619;DHT22;67941;52.506;5.470;2023-04-03T02:02:55;2.60;78.30
78619;DHT22;67941;52.506;5.470;2023-04-03T02:05:25;2.60;78.30
78619;DHT22;67941;52.506;5.470;2023-04-03T02:07:57;2.50;78.30
78619;DHT22;67941;52.506;5.470;2023-04-03T02:10:26;2.50;78.30
78619;DHT22;67941;52.506;5.470;2023-04-03T02:12:56;2.50;78.30
78619;DHT22;67941;52.506;5.470;2023-04-03T02:15:25;2.50;78.20
78619;DHT22;67941;52.506;5.470;2023-04-03T02:17:54;2.50;78.20
78619;DHT22;67941;52.506;5.470;2023-04-03T02:20:23;2.50;78.30
78619;DHT22;67941;52.506;5.470;2023-04-03T02:22:52;2.50;78.30
78619;DHT22;67941;52.506;5.470;2023-04-03T02:25:23;2.40;78.20
78619;DHT22;67941;52.506;5.470;2023-04-03T02:27:52;2.40;78.30
78619;DHT22;67941;52.506;5.470;2023-04-03T02:30:21;2.40;78.30
78619;DHT22;67941;52.506;5.470;2023-04-03T02:32:50;2.30;78.30
78619;DHT22;67941;52.506;5.470;2023-04-03T02:35:19;2.30;78.30
78619;DHT22;67941;52.506;5.470;2023-04-03T02:37:49;2.30;78.30
78619;DHT22;67941;52.506;5.470;2023-04-03T02:40:18;2.20;78.40
78619;DHT22;67941;52.506;5.470;2023-04-03T02:42:50;2.20;78.40
78619;DHT22;67941;52.506;5.470;2023-04-03T02:45:19;2.20;78.40
78619;DHT22;67941;52.506;5.470;2023-04-03T02:47:48;2.20;78.40
78619;DHT22;67941;52.506;5.470;2023-04-03T02:50:17;2.10;78.50
78619;DHT22;67941;52.506;5.470;2023-04-03T02:52:46;2.10;78.40
78619;DHT22;67941;52.506;5.470;2023-04-03T02:55:15;2.10;78.40
78619;DHT22;67941;52.506;5.470;2023-04-03T02:57:47;2.10;78.50
78619;DHT22;67941;52.506;5.470;2023-04-03T03:00:19;2.00;78.50
78619;DHT22;67941;52.506;5.470;2023-04-03T03:02:48;2.00;78.50
78619;DHT22;67941;52.506;5.470;2023-04-03T03:05:18;2.00;78.50
78619;DHT22;67941;52.506;5.470;2023-04-03T03:07:47;2.00;78.60
78619;DHT22;67941;52.506;5.470;2023-04-03T03:10:16;1.90;78.60
78619;DHT22;67941;52.506;5.470;2023-04-03T03:12:45;1.90;78.60
78619;DHT22;67941;52.506;5.470;2023-04-03T03:15:14;1.80;78.60
78619;DHT22;67941;52.506;5.470;2023-04-03T03:17:47;1.80;78.60
78619;DHT22;67941;52.506;5.470;2023-04-03T03:20:16;1.80;78.70
78619;DHT22;67941;52.506;5.470;2023-04-03T03:22:47;1.80;78.70
78619;DHT22;67941;52.506;5.470;2023-04-03T03:25:16;1.80;78.70
78619;DHT22;67941;52.506;5.470;2023-04-03T03:27:44;1.80;78.80
78619;DHT22;67941;52.506;5.470;2023-04-03T03:30:14;1.80;78.70
78619;DHT22;67941;52.506;5.470;2023-04-03T03:32:43;1.80;78.70
78619;DHT22;67941;52.506;5.470;2023-04-03T03:35:14;1.70;78.70
78619;DHT22;67941;52.506;5.470;2023-04-03T03:37:43;1.70;78.70
78619;DHT22;67941;52.506;5.470;2023-04-03T03:40:12;1.70;78.70
78619;DHT22;67941;52.506;5.470;2023-04-03T03:42:42;1.60;78.80
78619;DHT22;67941;52.506;5.470;2023-04-03T03:45:11;1.60;78.80
78619;DHT22;67941;52.506;5.470;2023-04-03T03:47:41;1.60;78.80
78619;DHT22;67941;52.506;5.470;2023-04-03T03:50:14;1.60;78.90
78619;DHT22;67941;52.506;5.470;2023-04-03T03:52:43;1.60;78.90
78619;DHT22;67941;52.506;5.470;2023-04-03T03:55:13;1.60;78.90
78619;DHT22;67941;52.506;5.470;2023-04-03T03:57:42;1.50;78.80
78619;DHT22;67941;52.506;5.470;2023-04-03T04:00:12;1.50;78.90
78619;DHT22;67941;52.506;5.470;2023-04-03T04:02:42;1.50;78.90
78619;DHT22;67941;52.506;5.470;2023-04-03T04:05:17;1.50;78.90
78619;DHT22;67941;52.506;5.470;2023-04-03T04:07:48;1.50;78.90
78619;DHT22;67941;52.506;5.470;2023-04-03T04:10:17;1.50;78.90
78619;DHT22;67941;52.506;5.470;2023-04-03T04:12:47;1.50;79.00
78619;DHT22;67941;52.506;5.470;2023-04-03T04:15:17;1.40;78.90
78619;DHT22;67941;52.506;5.470;2023-04-03T04:17:48;1.40;78.90
78619;DHT22;67941;52.506;5.470;2023-04-03T04:20:19;1.40;79.00
78619;DHT22;67941;52.506;5.470;2023-04-03T04:22:49;1.40;79.00
78619;DHT22;67941;52.506;5.470;2023-04-03T04:25:19;1.40;79.00
78619;DHT22;67941;52.506;5.470;2023-04-03T04:27:48;1.40;79.00
78619;DHT22;67941;52.506;5.470;2023-04-03T04:30:17;1.40;79.10
78619;DHT22;67941;52.506;5.470;2023-04-03T04:32:48;1.30;79.00
78619;DHT22;67941;52.506;5.470;2023-04-03T04:35:20;1.30;79.00
78619;DHT22;67941;52.506;5.470;2023-04-03T04:37:51;1.20;79.00
78619;DHT22;67941;52.506;5.470;2023-04-03T04:40:21;1.20;79.00
78619;DHT22;67941;52.506;5.470;2023-04-03T04:42:50;1.20;79.10
78619;DHT22;67941;52.506;5.470;2023-04-03T04:45:19;1.20;79.00
78619;DHT22;67941;52.506;5.470;2023-04-03T04:47:48;1.10;79.10
78619;DHT22;67941;52.506;5.470;2023-04-03T04:50:21;1.10;79.10
78619;DHT22;67941;52.506;5.470;2023-04-03T04:52:50;1.10;79.10
78619;DHT22;67941;52.506;5.470;2023-04-03T04:55:19;1.00;79.20
78619;DHT22;67941;52.506;5.470;2023-04-03T04:57:49;1.00;79.20
78619;DHT22;67941;52.506;5.470;2023-04-03T05:00:19;1.00;79.20
78619;DHT22;67941;52.506;5.470;2023-04-03T05:02:48;1.00;79.30
78619;DHT22;67941;52.506;5.470;2023-04-03T05:05:21;1.00;79.30
78619;DHT22;67941;52.506;5.470;2023-04-03T05:07:51;1.00;79.40
78619;DHT22;67941;52.506;5.470;2023-04-03T05:10:20;1.00;79.40
78619;DHT22;67941;52.506;5.470;2023-04-03T05:12:49;1.00;79.50
78619;DHT22;67941;52.506;5.470;2023-04-03T05:15:17;1.00;79.40
78619;DHT22;67941;52.506;5.470;2023-04-03T05:17:47;1.00;79.40
78619;DHT22;67941;52.506;5.470;2023-04-03T05:20:17;1.00;79.40
78619;DHT22;67941;52.506;5.470;2023-04-03T05:22:50;1.00;79.50
78619;DHT22;67941;52.506;5.470;2023-04-03T05:25:19;1.00;79.50
78619;DHT22;67941;52.506;5.470;2023-04-03T05:27:48;1.00;79.50
78619;DHT22;67941;52.506;5.470;2023-04-03T05:30:17;1.00;79.50
78619;DHT22;67941;52.506;5.470;2023-04-03T05:32:47;1.00;79.50
78619;DHT22;67941;52.506;5.470;2023-04-03T05:35:21;0.90;79.50
78619;DHT22;67941;52.506;5.470;2023-04-03T05:37:56;0.90;79.60
78619;DHT22;67941;52.506;5.470;2023-04-03T05:40:26;0.90;79.60
78619;DHT22;67941;52.506;5.470;2023-04-03T05:42:56;1.00;79.70
78619;DHT22;67941;52.506;5.470;2023-04-03T05:45:28;1.00;79.70
78619;DHT22;67941;52.506;5.470;2023-04-03T05:47:58;1.00;79.70
78619;DHT22;67941;52.506;5.470;2023-04-03T05:50:28;1.00;79.70
78619;DHT22;67941;52.506;5.470;2023-04-03T05:53:00;1.00;79.70
78619;DHT22;67941;52.506;5.470;2023-04-03T05:55:32;1.00;79.80
78619;DHT22;67941;52.506;5.470;2023-04-03T05:58:01;1.00;79.80
78619;DHT22;67941;52.506;5.470;2023-04-03T06:00:30;1.00;79.80
78619;DHT22;67941;52.506;5.470;2023-04-03T06:03:02;1.00;79.80
78619;DHT22;67941;52.506;5.470;2023-04-03T06:05:31;1.00;79.80
78619;DHT22;67941;52.506;5.470;2023-04-03T06:08:03;1.00;79.80
78619;DHT22;67941;52.506;5.470;2023-04-03T06:10:32;1.10;79.90
78619;DHT22;67941;52.506;5.470;2023-04-03T06:13:01;1.10;80.00
78619;DHT22;67941;52.506;5.470;2023-04-03T06:15:30;1.10;80.00
78619;DHT22;67941;52.506;5.470;2023-04-03T06:17:59;1.10;80.00
78619;DHT22;67941;52.506;5.470;2023-04-03T06:20:28;1.20;80.00
78619;DHT22;67941;52.506;5.470;2023-04-03T06:22:58;1.20;80.00
78619;DHT22;67941;52.506;5.470;2023-04-03T06:25:30;1.20;80.00
78619;DHT22;67941;52.506;5.470;2023-04-03T06:27:59;1.30;80.00
78619;DHT22;67941;52.506;5.470;2023-04-03T06:30:28;1.30;80.00
78619;DHT22;67941;52.506;5.470;2023-04-03T06:32:57;1.30;80.00
78619;DHT22;67941;52.506;5.470;2023-04-03T06:35:26;1.40;80.00
78619;DHT22;67941;52.506;5.470;2023-04-03T06:37:56;1.40;80.00
78619;DHT22;67941;52.506;5.470;2023-04-03T06:40:25;1.40;80.00
78619;DHT22;67941;52.506;5.470;2023-04-03T06:42:57;1.40;80.10
78619;DHT22;67941;52.506;5.470;2023-04-03T06:45:26;1.40;80.00
78619;DHT22;67941;52.506;5.470;2023-04-03T06:47:55;1.40;80.00
78619;DHT22;67941;52.506;5.470;2023-04-03T06:50:24;1.50;80.10
78619;DHT22;67941;52.506;5.470;2023-04-03T06:52:53;1.50;80.10
78619;DHT22;67941;52.506;5.470;2023-04-03T06:55:22;1.50;80.10
78619;DHT22;67941;52.506;5.470;2023-04-03T06:57:51;1.50;80.10
78619;DHT22;67941;52.506;5.470;2023-04-03T07:00:24;1.50;80.10
78619;DHT22;67941;52.506;5.470;2023-04-03T07:02:53;1.50;80.20
78619;DHT22;67941;52.506;5.470;2023-04-03T07:05:22;1.60;80.20
78619;DHT22;67941;52.506;5.470;2023-04-03T07:07:52;1.60;80.20
78619;DHT22;67941;52.506;5.470;2023-04-03T07:10:21;1.70;80.30
78619;DHT22;67941;52.506;5.470;2023-04-03T07:12:50;1.70;80.20
78619;DHT22;67941;52.506;5.470;2023-04-03T07:15:19;1.70;80.20
78619;DHT22;67941;52.506;5.470;2023-04-03T07:17:50;1.70;80.20
78619;DHT22;67941;52.506;5.470;2023-04-03T07:20:19;1.80;80.30
78619;DHT22;67941;52.506;5.470;2023-04-03T07:22:48;1.90;80.30
78619;DHT22;67941;52.506;5.470;2023-04-03T07:25:17;1.90;80.30
78619;DHT22;67941;52.506;5.470;2023-04-03T07:27:46;1.90;80.20
78619;DHT22;67941;52.506;5.470;2023-04-03T07:30:15;2.00;80.30
78619;DHT22;67941;52.506;5.470;2023-04-03T07:32:44;2.00;80.30
78619;DHT22;67941;52.506;5.470;2023-04-03T07:35:16;2.10;80.30
78619;DHT22;67941;52.506;5.470;2023-04-03T07:37:44;2.10;80.20
78619;DHT22;67941;52.506;5.470;2023-04-03T07:40:13;2.10;80.20
78619;DHT22;67941;52.506;5.470;2023-04-03T07:42:42;2.20;80.10
78619;DHT22;67941;52.506;5.470;2023-04-03T07:45:11;2.20;80.10
78619;DHT22;67941;52.506;5.470;2023-04-03T07:47:40;2.20;80.10
78619;DHT22;67941;52.506;5.470;2023-04-03T07:50:10;2.30;80.10
78619;DHT22;67941;52.506;5.470;2023-04-03T07:52:41;2.30;80.10
78619;DHT22;67941;52.506;5.470;2023-04-03T07:55:11;2.30;80.10
78619;DHT22;67941;52.506;5.470;2023-04-03T07:57:40;2.40;80.10
78619;DHT22;67941;52.506;5.470;2023-04-03T08:00:11;2.40;80.10
78619;DHT22;67941;52.506;5.470;2023-04-03T08:02:40;2.40;80.10
78619;DHT22;67941;52.506;5.470;2023-04-03T08:05:10;2.50;80.10
78619;DHT22;67941;52.506;5.470;2023-04-03T08:07:43;2.50;80.20
78619;DHT22;67941;52.506;5.470;2023-04-03T08:10:12;2.50;80.30
78619;DHT22;67941;52.506;5.470;2023-04-03T08:12:41;2.60;80.20
78619;DHT22;67941;52.506;5.470;2023-04-03T08:15:10;2.60;80.30
78619;DHT22;67941;52.506;5.470;2023-04-03T08:17:39;2.70;80.30
78619;DHT22;67941;52.506;5.470;2023-04-03T08:20:10;2.80;80.30
78619;DHT22;67941;52.506;5.470;2023-04-03T08:22:42;2.80;80.20
78619;DHT22;67941;52.506;5.470;2023-04-03T08:25:11;2.90;80.20
78619;DHT22;67941;52.506;5.470;2023-04-03T08:27:39;2.90;80.10
78619;DHT22;67941;52.506;5.470;2023-04-03T08:30:09;3.00;80.00
78619;DHT22;67941;52.506;5.470;2023-04-03T08:32:38;3.00;80.10
78619;DHT22;67941;52.506;5.470;2023-04-03T08:35:08;3.10;80.00
78619;DHT22;67941;52.506;5.470;2023-04-03T08:37:38;3.10;80.00
78619;DHT22;67941;52.506;5.470;2023-04-03T08:40:13;3.20;80.00
78619;DHT22;67941;52.506;5.470;2023-04-03T08:42:54;3.20;80.00
78619;DHT22;67941;52.506;5.470;2023-04-03T08:45:36;3.30;79.90
78619;DHT22;67941;52.506;5.470;2023-04-03T08:48:12;3.30;80.00
78619;DHT22;67941;52.506;5.470;2023-04-03T08:50:45;3.40;80.00
78619;DHT22;67941;52.506;5.470;2023-04-03T08:53:17;3.50;79.90
78619;DHT22;67941;52.506;5.470;2023-04-03T08:55:50;3.50;79.80
78619;DHT22;67941;52.506;5.470;2023-04-03T08:58:21;3.50;79.80
78619;DHT22;67941;52.506;5.470;2023-04-03T09:00:56;3.60;79.80
78619;DHT22;67941;52.506;5.470;2023-04-03T09:03:28;3.70;79.80
78619;DHT22;67941;52.506;5.470;2023-04-03T09:06:01;3.70;79.90
78619;DHT22;67941;52.506;5.470;2023-04-03T09:08:34;3.90;79.70
78619;DHT22;67941;52.506;5.470;2023-04-03T09:11:15;3.90;79.60
78619;DHT22;67941;52.506;5.470;2023-04-03T09:13:51;4.00;79.60
78619;DHT22;67941;52.506;5.470;2023-04-03T09:16:28;4.10;79.50
78619;DHT22;67941;52.506;5.470;2023-04-03T09:19:07;4.10;79.30
78619;DHT22;67941;52.506;5.470;2023-04-03T09:21:42;4.20;79.20
78619;DHT22;67941;52.506;5.470;2023-04-03T09:24:12;4.30;79.10
78619;DHT22;67941;52.506;5.470;2023-04-03T09:26:48;4.30;79.10
78619;DHT22;67941;52.506;5.470;2023-04-03T09:29:20;4.40;79.00
78619;DHT22;67941;52.506;5.470;2023-04-03T09:31:52;4.50;79.00
78619;DHT22;67941;52.506;5.470;2023-04-03T09:34:25;4.50;78.90
78619;DHT22;67941;52.506;5.470;2023-04-03T09:36:55;4.70;78.90
78619;DHT22;67941;52.506;5.470;2023-04-03T09:39:32;4.70;78.80
78619;DHT22;67941;52.506;5.470;2023-04-03T09:42:19;4.70;78.70
78619;DHT22;67941;52.506;5.470;2023-04-03T09:44:54;4.80;78.70
78619;DHT22;67941;52.506;5.470;2023-04-03T09:47:26;4.80;78.70
78619;DHT22;67941;52.506;5.470;2023-04-03T09:50:18;4.90;78.70
78619;DHT22;67941;52.506;5.470;2023-04-03T09:52:49;4.90;78.70
78619;DHT22;67941;52.506;5.470;2023-04-03T09:55:19;5.00;78.70
78619;DHT22;67941;52.506;5.470;2023-04-03T09:57:57;5.00;78.70
78619;DHT22;67941;52.506;5.470;2023-04-03T10:00:30;5.10;78.70
78619;DHT22;67941;52.506;5.470;2023-04-03T10:02:59;5.10;78.60
78619;DHT22;67941;52.506;5.470;2023-04-03T10:05:34;5.20;78.50
78619;DHT22;67941;52.506;5.470;2023-04-03T10:08:19;5.30;78.30
78619;DHT22;67941;52.506;5.470;2023-04-03T10:11:10;5.40;78.20
78619;DHT22;67941;52.506;5.470;2023-04-03T10:13:56;5.40;78.20
78619;DHT22;67941;52.506;5.470;2023-04-03T10:16:29;5.50;78.10
78619;DHT22;67941;52.506;5.470;2023-04-03T10:19:12;5.50;78.20
78619;DHT22;67941;52.506;5.470;2023-04-03T10:21:48;5.50;78.10
78619;DHT22;67941;52.506;5.470;2023-04-03T10:24:21;5.60;78.00
78619;DHT22;67941;52.506;5.470;2023-04-03T10:26:57;5.70;77.80
78619;DHT22;67941;52.506;5.470;2023-04-03T10:29:38;5.70;77.80
78619;DHT22;67941;52.506;5.470;2023-04-03T10:32:26;5.80;77.70
78619;DHT22;67941;52.506;5.470;2023-04-03T10:35:00;5.80;77.50
78619;DHT22;67941;52.506;5.470;2023-04-03T10:37:35;5.90;77.20
78619;DHT22;67941;52.506;5.470;2023-04-03T10:40:18;5.90;77.50
78619;DHT22;67941;52.506;5.470;2023-04-03T10:42:52;6.00;77.40
78619;DHT22;67941;52.506;5.470;2023-04-03T10:45:31;6.00;77.30
78619;DHT22;67941;52.506;5.470;2023-04-03T10:48:13;6.10;77.20
78619;DHT22;67941;52.506;5.470;2023-04-03T10:50:51;6.10;77.10
78619;DHT22;67941;52.506;5.470;2023-04-03T10:53:26;6.10;77.00
78619;DHT22;67941;52.506;5.470;2023-04-03T10:56:03;6.10;76.90
78619;DHT22;67941;52.506;5.470;2023-04-03T10:58:38;6.20;76.80
78619;DHT22;67941;52.506;5.470;2023-04-03T11:01:15;6.20;76.60
78619;DHT22;67941;52.506;5.470;2023-04-03T11:03:48;6.30;76.60
78619;DHT22;67941;52.506;5.470;2023-04-03T11:06:20;6.30;76.50
78619;DHT22;67941;52.506;5.470;2023-04-03T11:08:52;6.40;76.50
78619;DHT22;67941;52.506;5.470;2023-04-03T11:11:26;6.40;76.50
78619;DHT22;67941;52.506;5.470;2023-04-03T11:14:01;6.40;76.50
78619;DHT22;67941;52.506;5.470;2023-04-03T11:16:38;6.40;76.40
78619;DHT22;67941;52.506;5.470;2023-04-03T11:19:14;6.40;76.20
78619;DHT22;67941;52.506;5.470;2023-04-03T11:21:52;6.50;76.30
78619;DHT22;67941;52.506;5.470;2023-04-03T11:24:25;6.50;76.20
78619;DHT22;67941;52.506;5.470;2023-04-03T11:26:55;6.60;76.00
78619;DHT22;67941;52.506;5.470;2023-04-03T11:29:27;6.60;75.90
78619;DHT22;67941;52.506;5.470;2023-04-03T11:32:10;6.70;75.60
78619;DHT22;67941;52.506;5.470;2023-04-03T11:34:42;6.80;75.50
78619;DHT22;67941;52.506;5.470;2023-04-03T11:37:17;6.90;75.20
78619;DHT22;67941;52.506;5.470;2023-04-03T11:39:53;6.90;75.00
78619;DHT22;67941;52.506;5.470;2023-04-03T11:42:29;7.00;74.70
78619;DHT22;67941;52.506;5.470;2023-04-03T11:45:27;7.00;74.50
78619;DHT22;67941;52.506;5.470;2023-04-03T11:48:02;7.00;74.40
78619;DHT22;67941;52.506;5.470;2023-04-03T11:50:40;7.00;74.60
78619;DHT22;67941;52.506;5.470;2023-04-03T11:53:26;7.00;74.60
78619;DHT22;67941;52.506;5.470;2023-04-03T11:59:23;7.00;74.40
78619;DHT22;67941;52.506;5.470;2023-04-03T12:01:54;7.10;74.20
78619;DHT22;67941;52.506;5.470;2023-04-03T12:04:27;7.10;74.20
78619;DHT22;67941;52.506;5.470;2023-04-03T12:09:58;7.00;74.20
78619;DHT22;67941;52.506;5.470;2023-04-03T12:12:35;7.00;74.30
78619;DHT22;67941;52.506;5.470;2023-04-03T12:18:43;7.10;74.10
78619;DHT22;67941;52.506;5.470;2023-04-03T12:21:15;7.00;74.10
78619;DHT22;67941;52.506;5.470;2023-04-03T12:24:02;7.10;74.20
78619;DHT22;67941;52.506;5.470;2023-04-03T12:26:36;7.10;74.10
78619;DHT22;67941;52.506;5.470;2023-04-03T12:29:15;7.10;74.20
78619;DHT22;67941;52.506;5.470;2023-04-03T12:31:55;7.20;74.10
78619;DHT22;67941;52.506;5.470;2023-04-03T12:34:46;7.20;74.30
78619;DHT22;67941;52.506;5.470;2023-04-03T12:37:36;7.20;74.30
78619;DHT22;67941;52.506;5.470;2023-04-03T12:40:15;7.20;74.20
78619;DHT22;67941;52.506;5.470;2023-04-03T12:43:10;7.20;74.30
78619;DHT22;67941;52.506;5.470;2023-04-03T12:45:49;7.20;74.20
78619;DHT22;67941;52.506;5.470;2023-04-03T12:48:25;7.30;74.10
78619;DHT22;67941;52.506;5.470;2023-04-03T12:50:55;7.30;74.10
78619;DHT22;67941;52.506;5.470;2023-04-03T12:53:29;7.30;74.00
78619;DHT22;67941;52.506;5.470;2023-04-03T12:56:21;7.30;74.00
78619;DHT22;67941;52.506;5.470;2023-04-03T12:58:52;7.40;73.90
78619;DHT22;67941;52.506;5.470;2023-04-03T13:01:24;7.40;73.90
78619;DHT22;67941;52.506;5.470;2023-04-03T13:03:55;7.40;73.70
78619;DHT22;67941;52.506;5.470;2023-04-03T13:06:28;7.50;73.50
78619;DHT22;67941;52.506;5.470;2023-04-03T13:09:01;7.50;73.40
78619;DHT22;67941;52.506;5.470;2023-04-03T13:11:33;7.50;73.50
78619;DHT22;67941;52.506;5.470;2023-04-03T13:14:12;7.50;73.60
78619;DHT22;67941;52.506;5.470;2023-04-03T13:16:52;7.50;73.70
78619;DHT22;67941;52.506;5.470;2023-04-03T13:19:23;7.50;73.80
78619;DHT22;67941;52.506;5.470;2023-04-03T13:21:59;7.50;73.80
78619;DHT22;67941;52.506;5.470;2023-04-03T13:24:34;7.50;73.80
78619;DHT22;67941;52.506;5.470;2023-04-03T13:27:04;7.50;73.70
78619;DHT22;67941;52.506;5.470;2023-04-03T13:29:35;7.60;73.50
78619;DHT22;67941;52.506;5.470;2023-04-03T13:32:05;7.60;73.30
78619;DHT22;67941;52.506;5.470;2023-04-03T13:34:38;7.70;73.20
78619;DHT22;67941;52.506;5.470;2023-04-03T13:37:19;7.80;73.30
78619;DHT22;67941;52.506;5.470;2023-04-03T13:40:01;7.80;73.20
78619;DHT22;67941;52.506;5.470;2023-04-03T13:42:32;7.80;72.90
78619;DHT22;67941;52.506;5.470;2023-04-03T13:45:19;7.80;73.00
78619;DHT22;67941;52.506;5.470;2023-04-03T13:47:51;7.90;72.90
78619;DHT22;67941;52.506;5.470;2023-04-03T13:50:23;7.90;73.00
78619;DHT22;67941;52.506;5.470;2023-04-03T13:53:00;7.90;73.00
78619;DHT22;67941;52.506;5.470;2023-04-03T13:55:33;8.00;72.90
78619;DHT22;67941;52.506;5.470;2023-04-03T13:58:20;8.00;72.90
78619;DHT22;67941;52.506;5.470;2023-04-03T14:00:53;8.00;72.80
78619;DHT22;67941;52.506;5.470;2023-04-03T14:03:24;8.00;73.00
78619;DHT22;67941;52.506;5.470;2023-04-03T14:05:53;8.00;72.90
78619;DHT22;67941;52.506;5.470;2023-04-03T14:08:22;8.00;72.90
78619;DHT22;67941;52.506;5.470;2023-04-03T14:10:54;8.00;73.00
78619;DHT22;67941;52.506;5.470;2023-04-03T14:13:23;8.00;72.90
78619;DHT22;67941;52.506;5.470;2023-04-03T14:15:52;8.00;73.00
78619;DHT22;67941;52.506;5.470;2023-04-03T14:18:20;8.00;73.10
78619;DHT22;67941;52.506;5.470;2023-04-03T14:20:50;8.00;73.10
78619;DHT22;67941;52.506;5.470;2023-04-03T14:23:19;8.10;73.10
78619;DHT22;67941;52.506;5.470;2023-04-03T14:25:48;8.10;73.00
78619;DHT22;67941;52.506;5.470;2023-04-03T14:28:21;8.10;72.80
78619;DHT22;67941;52.506;5.470;2023-04-03T14:30:51;8.10;72.70
78619;DHT22;67941;52.506;5.470;2023-04-03T14:33:22;8.10;72.60
78619;DHT22;67941;52.506;5.470;2023-04-03T14:35:53;8.10;72.60
78619;DHT22;67941;52.506;5.470;2023-04-03T14:38:24;8.10;72.30
78619;DHT22;67941;52.506;5.470;2023-04-03T14:40:54;8.20;72.00
78619;DHT22;67941;52.506;5.470;2023-04-03T14:43:26;8.20;71.90
78619;DHT22;67941;52.506;5.470;2023-04-03T14:45:56;8.20;71.50
78619;DHT22;67941;52.506;5.470;2023-04-03T14:48:27;8.20;71.40
78619;DHT22;67941;52.506;5.470;2023-04-03T14:50:57;8.20;71.20
78619;DHT22;67941;52.506;5.470;2023-04-03T14:53:26;8.20;71.20
78619;DHT22;67941;52.506;5.470;2023-04-03T14:55:55;8.20;71.20
78619;DHT22;67941;52.506;5.470;2023-04-03T14:58:28;8.20;71.10
78619;DHT22;67941;52.506;5.470;2023-04-03T15:00:57;8.30;71.20
78619;DHT22;67941;52.506;5.470;2023-04-03T15:03:26;8.20;71.20
78619;DHT22;67941;52.506;5.470;2023-04-03T15:05:55;8.30;71.10
78619;DHT22;67941;52.506;5.470;2023-04-03T15:08:26;8.20;71.10
78619;DHT22;67941;52.506;5.470;2023-04-03T15:10:56;8.20;71.10
78619;DHT22;67941;52.506;5.470;2023-04-03T15:13:29;8.20;71.30
78619;DHT22;67941;52.506;5.470;2023-04-03T15:15:58;8.20;71.20
78619;DHT22;67941;52.506;5.470;2023-04-03T15:18:28;8.30;71.10
78619;DHT22;67941;52.506;5.470;2023-04-03T15:20:59;8.20;71.10
78619;DHT22;67941;52.506;5.470;2023-04-03T15:23:28;8.20;71.10
78619;DHT22;67941;52.506;5.470;2023-04-03T15:25:57;8.20;70.90
78619;DHT22;67941;52.506;5.470;2023-04-03T15:28:32;8.30;70.90
78619;DHT22;67941;52.506;5.470;2023-04-03T15:31:02;8.30;71.00
78619;DHT22;67941;52.506;5.470;2023-04-03T15:33:32;8.30;70.80
78619;DHT22;67941;52.506;5.470;2023-04-03T15:36:02;8.30;70.60
78619;DHT22;67941;52.506;5.470;2023-04-03T15:38:31;8.30;70.80
78619;DHT22;67941;52.506;5.470;2023-04-03T15:41:01;8.20;70.80
78619;DHT22;67941;52.506;5.470;2023-04-03T15:43:33;8.20;71.00
78619;DHT22;67941;52.506;5.470;2023-04-03T15:46:02;8.20;71.00
78619;DHT22;67941;52.506;5.470;2023-04-03T15:48:32;8.20;71.00
78619;DHT22;67941;52.506;5.470;2023-04-03T15:51:00;8.20;71.10
78619;DHT22;67941;52.506;5.470;2023-04-03T15:53:29;8.10;71.00
78619;DHT22;67941;52.506;5.470;2023-04-03T15:55:58;8.10;70.80
78619;DHT22;67941;52.506;5.470;2023-04-03T15:58:27;8.10;70.70
78619;DHT22;67941;52.506;5.470;2023-04-03T16:00:59;8.10;70.70
78619;DHT22;67941;52.506;5.470;2023-04-03T16:03:28;8.10;70.80
78619;DHT22;67941;52.506;5.470;2023-04-03T16:05:58;8.10;70.90
78619;DHT22;67941;52.506;5.470;2023-04-03T16:08:27;8.10;70.80
78619;DHT22;67941;52.506;5.470;2023-04-03T16:10:57;8.10;70.70
78619;DHT22;67941;52.506;5.470;2023-04-03T16:13:26;8.10;70.90
78619;DHT22;67941;52.506;5.470;2023-04-03T16:15:59;8.10;70.50
78619;DHT22;67941;52.506;5.470;2023-04-03T16:18:29;8.10;70.40
78619;DHT22;67941;52.506;5.470;2023-04-03T16:20:58;8.10;70.40
78619;DHT22;67941;52.506;5.470;2023-04-03T16:23:27;8.10;70.30
78619;DHT22;67941;52.506;5.470;2023-04-03T16:25:56;8.10;70.40